sensor_id;sensor_type;location;lat;lon;timestamp;temperature;humidity
1680;DHT22;838;51.794;12.258;2022-12-13T00:01:30;-1.30;29.60
1680;DHT22;838;51.794;12.258;2022-12-13T00:03:58;-1.20;28.70
1680;DHT22;838;51.794;12.258;2022-12-13T00:06:24;-0.90;26.90
1680;DHT22;838;51.794;12.258;2022-12-13T00:08:50;-0.80;25.00
1680;DHT22;838;51.794;12.258;2022-12-13T00:11:16;-0.90;25.20
1680;DHT22;838;51.794;12.258;2022-12-13T00:13:43;-0.90;24.10
1680;DHT22;838;51.794;12.258;2022-12-13T00:16:14;-0.90;24.60
1680;DHT22;838;51.794;12.258;2022-12-13T00:18:40;-0.80;23.30
1680;DHT22;838;51.794;12.258;2022-12-13T00:21:08;-0.70;22.20
1680;DHT22;838;51.794;12.258;2022-12-13T00:23:35;-0.70;21.50
1680;DHT22;838;51.794;12.258;2022-12-13T00:26:11;-0.60;21.10
1680;DHT22;838;51.794;12.258;2022-12-13T00:28:37;-0.70;20.60
1680;DHT22;838;51.794;12.258;2022-12-13T00:31:06;-0.70;20.00
1680;DHT22;838;51.794;12.258;2022-12-13T00:33:32;-0.80;19.80
1680;DHT22;838;51.794;12.258;2022-12-13T00:35:58;-0.90;20.10
1680;DHT22;838;51.794;12.258;2022-12-13T00:38:24;-0.90;20.30
1680;DHT22;838;51.794;12.258;2022-12-13T00:40:50;-0.90;19.90
1680;DHT22;838;51.794;12.258;2022-12-13T00:43:17;-0.90;19.00
1680;DHT22;838;51.794;12.258;2022-12-13T00:45:43;-1.10;19.70
1680;DHT22;838;51.794;12.258;2022-12-13T00:48:08;-1.20;19.90
1680;DHT22;838;51.794;12.258;2022-12-13T00:50:34;-1.20;19.90
1680;DHT22;838;51.794;12.258;2022-12-13T00:53:01;-1.20;19.60
1680;DHT22;838;51.794;12.258;2022-12-13T00:55:27;-1.20;19.20
1680;DHT22;838;51.794;12.258;2022-12-13T00:57:53;-1.30;18.40
1680;DHT22;838;51.794;12.258;2022-12-13T01:00:19;-1.50;18.50
1680;DHT22;838;51.794;12.258;2022-12-13T01:02:45;-1.70;18.90
1680;DHT22;838;51.794;12.258;2022-12-13T01:05:11;-1.70;19.70
1680;DHT22;838;51.794;12.258;2022-12-13T01:07:38;-1.70;19.80
1680;DHT22;838;51.794;12.258;2022-12-13T01:10:06;-1.70;19.70
1680;DHT22;838;51.794;12.258;2022-12-13T01:12:35;-1.70;19.40
1680;DHT22;838;51.794;12.258;2022-12-13T01:15:01;-1.80;19.10
1680;DHT22;838;51.794;12.258;2022-12-13T01:17:27;-2.00;19.40
1680;DHT22;838;51.794;12.258;2022-12-13T01:19:53;-2.20;20.40
1680;DHT22;838;51.794;12.258;2022-12-13T01:22:18;-2.30;20.40
1680;DHT22;838;51.794;12.258;2022-12-13T01:24:44;-2.70;21.20
1680;DHT22;838;51.794;12.258;2022-12-13T01:27:10;-3.00;24.20
1680;DHT22;838;51.794;12.258;2022-12-13T01:29:36;-3.30;25.60
1680;DHT22;838;51.794;12.258;2022-12-13T01:32:02;-3.60;27.70
1680;DHT22;838;51.794;12.258;2022-12-13T01:34:28;-3.60;28.60
1680;DHT22;838;51.794;12.258;2022-12-13T01:36:54;-3.50;27.60
1680;DHT22;838;51.794;12.258;2022-12-13T01:39:20;-3.70;28.20
1680;DHT22;838;51.794;12.258;2022-12-13T01:41:50;-3.90;27.60
1680;DHT22;838;51.794;12.258;2022-12-13T01:47:42;-3.90;28.00
1680;DHT22;838;51.794;12.258;2022-12-13T01:53:18;-4.40;28.80
1680;DHT22;838;51.794;12.258;2022-12-13T01:55:47;-4.60;31.20
1680;DHT22;838;51.794;12.258;2022-12-13T01:58:15;-4.60;33.60
1680;DHT22;838;51.794;12.258;2022-12-13T02:00:42;-4.50;34.60
1680;DHT22;838;51.794;12.258;2022-12-13T02:03:09;-4.70;36.40
1680;DHT22;838;51.794;12.258;2022-12-13T02:05:40;-4.60;36.20
1680;DHT22;838;51.794;12.258;2022-12-13T02:08:08;-4.50;37.50
1680;DHT22;838;51.794;12.258;2022-12-13T02:10:35;-4.20;34.50
1680;DHT22;838;51.794;12.258;2022-12-13T02:13:01;-3.70;32.10
1680;DHT22;838;51.794;12.258;2022-12-13T02:15:43;-3.60;29.90
1680;DHT22;838;51.794;12.258;2022-12-13T02:18:25;-3.50;27.70
1680;DHT22;838;51.794;12.258;2022-12-13T02:24:01;-3.80;24.60
1680;DHT22;838;51.794;12.258;2022-12-13T02:27:00;-4.10;26.10
1680;DHT22;838;51.794;12.258;2022-12-13T02:37:50;-4.50;27.90
1680;DHT22;838;51.794;12.258;2022-12-13T02:40:29;-4.40;29.00
1680;DHT22;838;51.794;12.258;2022-12-13T02:43:19;-4.70;30.00
1680;DHT22;838;51.794;12.258;2022-12-13T02:46:00;-4.70;30.20
1680;DHT22;838;51.794;12.258;2022-12-13T02:48:36;-4.30;30.20
1680;DHT22;838;51.794;12.258;2022-12-13T02:51:04;-4.30;28.00
1680;DHT22;838;51.794;12.258;2022-12-13T02:53:36;-4.70;28.60
1680;DHT22;838;51.794;12.258;2022-12-13T02:56:02;-4.70;30.70
1680;DHT22;838;51.794;12.258;2022-12-13T02:58:36;-4.50;29.50
1680;DHT22;838;51.794;12.258;2022-12-13T03:04:27;-4.50;27.20
1680;DHT22;838;51.794;12.258;2022-12-13T03:12:11;-4.20;28.20
1680;DHT22;838;51.794;12.258;2022-12-13T03:15:15;-4.00;26.10
1680;DHT22;838;51.794;12.258;2022-12-13T03:18:01;-3.80;25.00
1680;DHT22;838;51.794;12.258;2022-12-13T03:20:29;-3.60;23.40
1680;DHT22;838;51.794;12.258;2022-12-13T03:22:56;-3.40;22.90
1680;DHT22;838;51.794;12.258;2022-12-13T03:25:26;-3.30;21.80
1680;DHT22;838;51.794;12.258;2022-12-13T03:28:12;-3.30;20.90
1680;DHT22;838;51.794;12.258;2022-12-13T03:30:38;-3.30;20.60
1680;DHT22;838;51.794;12.258;2022-12-13T03:33:04;-3.20;19.40
1680;DHT22;838;51.794;12.258;2022-12-13T03:35:30;-3.30;18.50
1680;DHT22;838;51.794;12.258;2022-12-13T03:37:56;-3.40;18.10
1680;DHT22;838;51.794;12.258;2022-12-13T03:40:22;-3.40;18.80
1680;DHT22;838;51.794;12.258;2022-12-13T03:42:48;-3.40;18.40
1680;DHT22;838;51.794;12.258;2022-12-13T03:45:14;-3.30;17.70
1680;DHT22;838;51.794;12.258;2022-12-13T03:47:42;-3.40;17.80
1680;DHT22;838;51.794;12.258;2022-12-13T03:50:08;-3.40;17.10
1680;DHT22;838;51.794;12.258;2022-12-13T03:52:33;-3.50;16.90
1680;DHT22;838;51.794;12.258;2022-12-13T03:54:59;-3.60;16.90
1680;DHT22;838;51.794;12.258;2022-12-13T03:57:25;-3.70;16.60
1680;DHT22;838;51.794;12.258;2022-12-13T03:59:51;-3.60;16.50
1680;DHT22;838;51.794;12.258;2022-12-13T04:02:16;-3.70;16.30
1680;DHT22;838;51.794;12.258;2022-12-13T04:04:42;-3.70;15.80
1680;DHT22;838;51.794;12.258;2022-12-13T04:07:08;-3.80;16.00
1680;DHT22;838;51.794;12.258;2022-12-13T04:09:34;-3.80;16.30
1680;DHT22;838;51.794;12.258;2022-12-13T04:12:00;-4.10;16.80
1680;DHT22;838;51.794;12.258;2022-12-13T04:14:44;-4.00;16.20
1680;DHT22;838;51.794;12.258;2022-12-13T04:17:10;-3.90;15.50
1680;DHT22;838;51.794;12.258;2022-12-13T04:19:35;-3.90;15.50
1680;DHT22;838;51.794;12.258;2022-12-13T04:22:01;-3.90;15.00
1680;DHT22;838;51.794;12.258;2022-12-13T04:24:27;-4.30;15.40
1680;DHT22;838;51.794;12.258;2022-12-13T04:26:53;-4.40;16.10
1680;DHT22;838;51.794;12.258;2022-12-13T04:29:22;-4.40;16.00
1680;DHT22;838;51.794;12.258;2022-12-13T04:31:48;-4.30;15.50
1680;DHT22;838;51.794;12.258;2022-12-13T04:34:14;-4.30;15.10
1680;DHT22;838;51.794;12.258;2022-12-13T04:36:40;-4.20;14.80
1680;DHT22;838;51.794;12.258;2022-12-13T04:39:06;-4.20;14.00
1680;DHT22;838;51.794;12.258;2022-12-13T04:41:36;-4.20;14.20
1680;DHT22;838;51.794;12.258;2022-12-13T04:44:03;-4.20;13.80
1680;DHT22;838;51.794;12.258;2022-12-13T04:46:30;-4.20;13.90
1680;DHT22;838;51.794;12.258;2022-12-13T04:48:56;-4.20;14.10
1680;DHT22;838;51.794;12.258;2022-12-13T04:51:21;-4.20;14.80
1680;DHT22;838;51.794;12.258;2022-12-13T04:53:47;-4.40;15.10
1680;DHT22;838;51.794;12.258;2022-12-13T04:56:13;-4.50;14.90
1680;DHT22;838;51.794;12.258;2022-12-13T04:58:39;-4.70;15.00
1680;DHT22;838;51.794;12.258;2022-12-13T05:01:08;-4.70;15.70
1680;DHT22;838;51.794;12.258;2022-12-13T05:03:35;-4.70;16.30
1680;DHT22;838;51.794;12.258;2022-12-13T05:06:09;-4.60;15.60
1680;DHT22;838;51.794;12.258;2022-12-13T05:08:35;-4.70;15.80
1680;DHT22;838;51.794;12.258;2022-12-13T05:11:02;-4.70;16.00
1680;DHT22;838;51.794;12.258;2022-12-13T05:13:28;-4.60;14.90
1680;DHT22;838;51.794;12.258;2022-12-13T05:15:56;-4.50;14.40
1680;DHT22;838;51.794;12.258;2022-12-13T05:18:22;-4.70;14.50
1680;DHT22;838;51.794;12.258;2022-12-13T05:20:48;-4.80;14.40
1680;DHT22;838;51.794;12.258;2022-12-13T05:23:16;-4.90;15.50
1680;DHT22;838;51.794;12.258;2022-12-13T05:25:42;-5.00;16.00
1680;DHT22;838;51.794;12.258;2022-12-13T05:28:08;-4.90;15.40
1680;DHT22;838;51.794;12.258;2022-12-13T05:30:36;-5.20;15.10
1680;DHT22;838;51.794;12.258;2022-12-13T05:33:02;-5.30;16.20
1680;DHT22;838;51.794;12.258;2022-12-13T05:35:27;-5.50;16.70
1680;DHT22;838;51.794;12.258;2022-12-13T05:37:53;-5.70;18.40
1680;DHT22;838;51.794;12.258;2022-12-13T05:40:19;-5.90;19.10
1680;DHT22;838;51.794;12.258;2022-12-13T05:42:44;-5.90;20.90
1680;DHT22;838;51.794;12.258;2022-12-13T05:45:11;-5.80;21.00
1680;DHT22;838;51.794;12.258;2022-12-13T05:47:37;-5.70;20.40
1680;DHT22;838;51.794;12.258;2022-12-13T05:50:03;-5.80;20.60
1680;DHT22;838;51.794;12.258;2022-12-13T05:52:29;-5.90;21.50
1680;DHT22;838;51.794;12.258;2022-12-13T05:54:55;-5.80;21.60
1680;DHT22;838;51.794;12.258;2022-12-13T05:57:21;-5.60;22.20
1680;DHT22;838;51.794;12.258;2022-12-13T05:59:47;-5.50;21.70
1680;DHT22;838;51.794;12.258;2022-12-13T06:02:13;-5.40;21.20
1680;DHT22;838;51.794;12.258;2022-12-13T06:04:38;-5.50;20.90
1680;DHT22;838;51.794;12.258;2022-12-13T06:07:04;-5.60;21.40
1680;DHT22;838;51.794;12.258;2022-12-13T06:09:30;-5.40;19.70
1680;DHT22;838;51.794;12.258;2022-12-13T06:11:56;-5.30;18.80
1680;DHT22;838;51.794;12.258;2022-12-13T06:14:21;-5.40;17.60
1680;DHT22;838;51.794;12.258;2022-12-13T06:16:47;-5.40;17.70
1680;DHT22;838;51.794;12.258;2022-12-13T06:19:13;-5.70;18.50
1680;DHT22;838;51.794;12.258;2022-12-13T06:21:39;-6.10;20.70
1680;DHT22;838;51.794;12.258;2022-12-13T06:24:05;-6.20;22.50
1680;DHT22;838;51.794;12.258;2022-12-13T06:26:33;-5.80;22.40
1680;DHT22;838;51.794;12.258;2022-12-13T06:28:59;-5.60;20.40
1680;DHT22;838;51.794;12.258;2022-12-13T06:31:24;-5.70;21.00
1680;DHT22;838;51.794;12.258;2022-12-13T06:33:50;-5.60;20.80
1680;DHT22;838;51.794;12.258;2022-12-13T06:36:16;-5.60;19.00
1680;DHT22;838;51.794;12.258;2022-12-13T06:38:42;-5.70;19.40
1680;DHT22;838;51.794;12.258;2022-12-13T06:41:13;-5.80;19.70
1680;DHT22;838;51.794;12.258;2022-12-13T06:43:46;-6.00;20.80
1680;DHT22;838;51.794;12.258;2022-12-13T06:46:12;-5.90;21.30
1680;DHT22;838;51.794;12.258;2022-12-13T06:48:38;-5.80;21.30
1680;DHT22;838;51.794;12.258;2022-12-13T06:51:06;-5.70;20.80
1680;DHT22;838;51.794;12.258;2022-12-13T06:53:34;-5.40;19.10
1680;DHT22;838;51.794;12.258;2022-12-13T06:56:11;-5.40;18.90
1680;DHT22;838;51.794;12.258;2022-12-13T06:58:37;-5.40;17.70
1680;DHT22;838;51.794;12.258;2022-12-13T07:01:11;-5.10;17.30
1680;DHT22;838;51.794;12.258;2022-12-13T07:03:38;-5.40;16.80
1680;DHT22;838;51.794;12.258;2022-12-13T07:06:10;-5.30;17.20
1680;DHT22;838;51.794;12.258;2022-12-13T07:08:36;-5.30;16.30
1680;DHT22;838;51.794;12.258;2022-12-13T07:11:02;-5.30;15.70
1680;DHT22;838;51.794;12.258;2022-12-13T07:13:28;-5.40;16.10
1680;DHT22;838;51.794;12.258;2022-12-13T07:15:55;-5.30;16.10
1680;DHT22;838;51.794;12.258;2022-12-13T07:18:21;-5.20;15.80
1680;DHT22;838;51.794;12.258;2022-12-13T07:20:47;-4.90;15.10
1680;DHT22;838;51.794;12.258;2022-12-13T07:23:13;-5.10;15.50
1680;DHT22;838;51.794;12.258;2022-12-13T07:25:39;-5.10;15.10
1680;DHT22;838;51.794;12.258;2022-12-13T07:28:07;-5.30;16.50
1680;DHT22;838;51.794;12.258;2022-12-13T07:30:37;-5.30;15.40
1680;DHT22;838;51.794;12.258;2022-12-13T07:33:04;-5.30;17.50
1680;DHT22;838;51.794;12.258;2022-12-13T07:35:31;-5.20;18.90
1680;DHT22;838;51.794;12.258;2022-12-13T07:37:57;-5.00;19.40
1680;DHT22;838;51.794;12.258;2022-12-13T07:40:23;-4.60;20.00
1680;DHT22;838;51.794;12.258;2022-12-13T07:42:54;-4.40;19.70
1680;DHT22;838;51.794;12.258;2022-12-13T07:45:21;-4.20;19.40
1680;DHT22;838;51.794;12.258;2022-12-13T07:47:47;-4.10;18.60
1680;DHT22;838;51.794;12.258;2022-12-13T07:50:14;-3.70;18.20
1680;DHT22;838;51.794;12.258;2022-12-13T07:52:40;-3.50;16.80
1680;DHT22;838;51.794;12.258;2022-12-13T07:55:07;-3.50;16.90
1680;DHT22;838;51.794;12.258;2022-12-13T07:57:34;-3.20;16.50
1680;DHT22;838;51.794;12.258;2022-12-13T07:59:59;-3.30;13.90
1680;DHT22;838;51.794;12.258;2022-12-13T08:02:25;-3.60;13.00
1680;DHT22;838;51.794;12.258;2022-12-13T08:04:52;-4.10;13.70
1680;DHT22;838;51.794;12.258;2022-12-13T08:07:18;-4.40;14.90
1680;DHT22;838;51.794;12.258;2022-12-13T08:09:43;-4.50;15.80
1680;DHT22;838;51.794;12.258;2022-12-13T08:12:09;-4.70;17.40
1680;DHT22;838;51.794;12.258;2022-12-13T08:14:35;-4.80;17.50
1680;DHT22;838;51.794;12.258;2022-12-13T08:17:00;-5.00;18.90
1680;DHT22;838;51.794;12.258;2022-12-13T08:19:26;-4.90;20.90
1680;DHT22;838;51.794;12.258;2022-12-13T08:21:52;-5.00;20.20
1680;DHT22;838;51.794;12.258;2022-12-13T08:24:19;-5.20;21.90
1680;DHT22;838;51.794;12.258;2022-12-13T08:26:44;-5.20;22.60
1680;DHT22;838;51.794;12.258;2022-12-13T08:29:14;-5.40;23.00
1680;DHT22;838;51.794;12.258;2022-12-13T08:31:40;-5.50;24.70
1680;DHT22;838;51.794;12.258;2022-12-13T08:34:05;-5.40;26.70
1680;DHT22;838;51.794;12.258;2022-12-13T08:36:31;-4.80;27.10
1680;DHT22;838;51.794;12.258;2022-12-13T08:38:57;-4.30;25.00
1680;DHT22;838;51.794;12.258;2022-12-13T08:41:26;-4.40;23.10
1680;DHT22;838;51.794;12.258;2022-12-13T08:43:52;-4.10;24.40
1680;DHT22;838;51.794;12.258;2022-12-13T08:46:18;-4.10;20.90
1680;DHT22;838;51.794;12.258;2022-12-13T08:48:43;-4.40;21.80
1680;DHT22;838;51.794;12.258;2022-12-13T08:51:11;-4.50;24.60
1680;DHT22;838;51.794;12.258;2022-12-13T08:53:37;-4.50;24.80
1680;DHT22;838;51.794;12.258;2022-12-13T08:56:05;-4.50;24.20
1680;DHT22;838;51.794;12.258;2022-12-13T08:58:32;-4.80;25.10
1680;DHT22;838;51.794;12.258;2022-12-13T09:00:58;-4.90;26.70
1680;DHT22;838;51.794;12.258;2022-12-13T09:03:24;-4.70;27.30
1680;DHT22;838;51.794;12.258;2022-12-13T09:05:49;-4.70;28.20
1680;DHT22;838;51.794;12.258;2022-12-13T09:08:16;-4.40;26.50
1680;DHT22;838;51.794;12.258;2022-12-13T09:10:42;-4.10;27.20
1680;DHT22;838;51.794;12.258;2022-12-13T09:13:08;-3.80;24.70
1680;DHT22;838;51.794;12.258;2022-12-13T09:15:38;-3.60;24.20
1680;DHT22;838;51.794;12.258;2022-12-13T09:18:04;-3.60;22.10
1680;DHT22;838;51.794;12.258;2022-12-13T09:20:29;-3.70;23.00
1680;DHT22;838;51.794;12.258;2022-12-13T09:22:55;-3.80;22.20
1680;DHT22;838;51.794;12.258;2022-12-13T09:25:21;-4.10;24.10
1680;DHT22;838;51.794;12.258;2022-12-13T09:27:47;-4.30;26.50
1680;DHT22;838;51.794;12.258;2022-12-13T09:30:14;-4.30;27.40
1680;DHT22;838;51.794;12.258;2022-12-13T09:32:41;-4.30;27.80
1680;DHT22;838;51.794;12.258;2022-12-13T09:35:14;-4.40;28.40
1680;DHT22;838;51.794;12.258;2022-12-13T09:37:39;-4.50;29.00
1680;DHT22;838;51.794;12.258;2022-12-13T09:40:06;-4.50;29.80
1680;DHT22;838;51.794;12.258;2022-12-13T09:42:33;-4.60;30.10
1680;DHT22;838;51.794;12.258;2022-12-13T09:45:02;-4.50;31.70
1680;DHT22;838;51.794;12.258;2022-12-13T09:47:38;-4.60;31.10
1680;DHT22;838;51.794;12.258;2022-12-13T09:50:28;-4.40;31.90
1680;DHT22;838;51.794;12.258;2022-12-13T09:52:52;-4.20;32.50
1680;DHT22;838;51.794;12.258;2022-12-13T09:55:30;-4.10;31.30
1680;DHT22;838;51.794;12.258;2022-12-13T09:57:58;-3.90;30.70
1680;DHT22;838;51.794;12.258;2022-12-13T10:00:31;-3.80;30.20
1680;DHT22;838;51.794;12.258;2022-12-13T10:02:58;-3.70;29.90
1680;DHT22;838;51.794;12.258;2022-12-13T10:05:28;-3.60;29.50
1680;DHT22;838;51.794;12.258;2022-12-13T10:07:58;-3.40;28.60
1680;DHT22;838;51.794;12.258;2022-12-13T10:10:25;-3.30;28.80
1680;DHT22;838;51.794;12.258;2022-12-13T10:12:56;-3.10;27.50
1680;DHT22;838;51.794;12.258;2022-12-13T10:15:25;-3.10;26.40
1680;DHT22;838;51.794;12.258;2022-12-13T10:17:51;-3.10;26.90
1680;DHT22;838;51.794;12.258;2022-12-13T10:20:20;-3.10;27.40
1680;DHT22;838;51.794;12.258;2022-12-13T10:22:46;-2.80;27.70
1680;DHT22;838;51.794;12.258;2022-12-13T10:25:13;-2.50;26.20
1680;DHT22;838;51.794;12.258;2022-12-13T10:27:43;-2.70;25.60
1680;DHT22;838;51.794;12.258;2022-12-13T10:30:19;-2.60;25.50
1680;DHT22;838;51.794;12.258;2022-12-13T10:32:55;-2.70;25.10
1680;DHT22;838;51.794;12.258;2022-12-13T10:37:52;-2.50;28.30
1680;DHT22;838;51.794;12.258;2022-12-13T10:40:37;-2.20;25.80
1680;DHT22;838;51.794;12.258;2022-12-13T10:43:23;-2.20;25.00
1680;DHT22;838;51.794;12.258;2022-12-13T10:46:01;-2.00;25.00
1680;DHT22;838;51.794;12.258;2022-12-13T10:48:46;-1.80;23.90
1680;DHT22;838;51.794;12.258;2022-12-13T10:51:16;-2.00;24.30
1680;DHT22;838;51.794;12.258;2022-12-13T10:53:48;-1.70;24.60
1680;DHT22;838;51.794;12.258;2022-12-13T10:56:16;-1.90;24.00
1680;DHT22;838;51.794;12.258;2022-12-13T10:58:45;-2.10;24.30
1680;DHT22;838;51.794;12.258;2022-12-13T11:06:27;-2.20;24.30
1680;DHT22;838;51.794;12.258;2022-12-13T11:08:54;-2.30;26.70
1680;DHT22;838;51.794;12.258;2022-12-13T11:11:28;-2.40;27.50
1680;DHT22;838;51.794;12.258;2022-12-13T11:13:56;-2.30;28.70
1680;DHT22;838;51.794;12.258;2022-12-13T11:16:34;-1.80;27.10
1680;DHT22;838;51.794;12.258;2022-12-13T11:19:04;-1.80;27.00
1680;DHT22;838;51.794;12.258;2022-12-13T11:21:33;-1.60;26.30
1680;DHT22;838;51.794;12.258;2022-12-13T11:24:03;-1.20;26.10
1680;DHT22;838;51.794;12.258;2022-12-13T11:26:33;-1.00;22.60
1680;DHT22;838;51.794;12.258;2022-12-13T11:37:41;-0.30;19.40
1680;DHT22;838;51.794;12.258;2022-12-13T11:40:16;-0.40;19.30
1680;DHT22;838;51.794;12.258;2022-12-13T11:43:11;-0.70;19.30
1680;DHT22;838;51.794;12.258;2022-12-13T11:45:44;-1.20;22.20
1680;DHT22;838;51.794;12.258;2022-12-13T11:50:48;-1.00;22.40
1680;DHT22;838;51.794;12.258;2022-12-13T11:55:56;-0.90;22.00
1680;DHT22;838;51.794;12.258;2022-12-13T12:01:18;-0.90;21.00
1680;DHT22;838;51.794;12.258;2022-12-13T12:03:46;-0.80;22.40
1680;DHT22;838;51.794;12.258;2022-12-13T12:06:39;-0.60;20.40
1680;DHT22;838;51.794;12.258;2022-12-13T12:09:12;-0.80;20.40
1680;DHT22;838;51.794;12.258;2022-12-13T12:11:58;-0.90;20.60
1680;DHT22;838;51.794;12.258;2022-12-13T12:14:45;-1.00;22.10
1680;DHT22;838;51.794;12.258;2022-12-13T12:17:18;-0.60;21.50
1680;DHT22;838;51.794;12.258;2022-12-13T12:19:51;-0.30;18.70
1680;DHT22;838;51.794;12.258;2022-12-13T12:33:52;-0.60;20.90
1680;DHT22;838;51.794;12.258;2022-12-13T12:36:40;-0.40;19.20
1680;DHT22;838;51.794;12.258;2022-12-13T12:57:58;-1.10;20.00
1680;DHT22;838;51.794;12.258;2022-12-13T13:03:41;-1.50;21.10
1680;DHT22;838;51.794;12.258;2022-12-13T13:06:52;-1.60;21.80
1680;DHT22;838;51.794;12.258;2022-12-13T13:09:16;-1.80;22.20
1680;DHT22;838;51.794;12.258;2022-12-13T13:11:45;-1.80;22.50
1680;DHT22;838;51.794;12.258;2022-12-13T13:14:31;-1.80;22.70
1680;DHT22;838;51.794;12.258;2022-12-13T13:16:59;-1.80;22.30
1680;DHT22;838;51.794;12.258;2022-12-13T13:21:59;-2.00;21.50
1680;DHT22;838;51.794;12.258;2022-12-13T13:24:30;-1.80;21.80
1680;DHT22;838;51.794;12.258;2022-12-13T13:27:24;-2.00;21.60
1680;DHT22;838;51.794;12.258;2022-12-13T13:29:52;-2.00;22.70
1680;DHT22;838;51.794;12.258;2022-12-13T13:32:29;-1.90;23.00
1680;DHT22;838;51.794;12.258;2022-12-13T13:35:44;-1.70;22.30
1680;DHT22;838;51.794;12.258;2022-12-13T13:38:03;-1.70;22.20
1680;DHT22;838;51.794;12.258;2022-12-13T13:40:37;-1.80;22.20
1680;DHT22;838;51.794;12.258;2022-12-13T14:28:53;-1.70;22.20
1680;DHT22;838;51.794;12.258;2022-12-13T14:31:44;-1.70;22.20
1680;DHT22;838;51.794;12.258;2022-12-13T14:34:28;-1.80;22.10
1680;DHT22;838;51.794;12.258;2022-12-13T14:37:00;-1.90;23.00
1680;DHT22;838;51.794;12.258;2022-12-13T14:39:28;-1.80;22.90
1680;DHT22;838;51.794;12.258;2022-12-13T14:41:57;-1.70;22.30
1680;DHT22;838;51.794;12.258;2022-12-13T14:44:28;-1.70;21.30
1680;DHT22;838;51.794;12.258;2022-12-13T14:46:59;-1.80;21.40
1680;DHT22;838;51.794;12.258;2022-12-13T14:49:27;-2.00;22.50
1680;DHT22;838;51.794;12.258;2022-12-13T14:52:04;-2.00;23.10
1680;DHT22;838;51.794;12.258;2022-12-13T14:54:40;-1.90;22.60
1680;DHT22;838;51.794;12.258;2022-12-13T14:57:15;-1.60;21.70
1680;DHT22;838;51.794;12.258;2022-12-13T14:59:49;-1.60;21.30
1680;DHT22;838;51.794;12.258;2022-12-13T15:02:19;-1.50;21.20
1680;DHT22;838;51.794;12.258;2022-12-13T15:04:46;-1.30;19.50
1680;DHT22;838;51.794;12.258;2022-12-13T15:07:25;-1.40;19.70
1680;DHT22;838;51.794;12.258;2022-12-13T15:09:55;-1.30;19.20
1680;DHT22;838;51.794;12.258;2022-12-13T15:12:22;-1.20;17.80
1680;DHT22;838;51.794;12.258;2022-12-13T15:14:52;-1.30;17.20
1680;DHT22;838;51.794;12.258;2022-12-13T15:17:35;-1.20;16.90
1680;DHT22;838;51.794;12.258;2022-12-13T15:20:15;-1.20;16.40
1680;DHT22;838;51.794;12.258;2022-12-13T15:22:42;-1.20;16.30
1680;DHT22;838;51.794;12.258;2022-12-13T15:25:12;-1.20;15.20
1680;DHT22;838;51.794;12.258;2022-12-13T15:27:38;-1.40;15.10
1680;DHT22;838;51.794;12.258;2022-12-13T15:30:04;-1.50;15.40
1680;DHT22;838;51.794;12.258;2022-12-13T15:32:30;-1.40;15.70
1680;DHT22;838;51.794;12.258;2022-12-13T15:34:56;-1.30;15.20
1680;DHT22;838;51.794;12.258;2022-12-13T15:37:39;-1.30;15.40
1680;DHT22;838;51.794;12.258;2022-12-13T15:40:11;-1.50;15.10
1680;DHT22;838;51.794;12.258;2022-12-13T15:42:45;-1.70;15.60
1680;DHT22;838;51.794;12.258;2022-12-13T15:45:21;-1.90;15.90
1680;DHT22;838;51.794;12.258;2022-12-13T15:47:48;-2.10;16.50
1680;DHT22;838;51.794;12.258;2022-12-13T15:50:35;-2.40;18.70
1680;DHT22;838;51.794;12.258;2022-12-13T15:53:05;-2.50;20.90
1680;DHT22;838;51.794;12.258;2022-12-13T15:55:35;-2.30;20.30
1680;DHT22;838;51.794;12.258;2022-12-13T15:58:02;-2.20;19.90
1680;DHT22;838;51.794;12.258;2022-12-13T16:00:33;-2.10;19.70
1680;DHT22;838;51.794;12.258;2022-12-13T16:03:07;-2.00;19.20
1680;DHT22;838;51.794;12.258;2022-12-13T16:05:42;-2.10;19.00
1680;DHT22;838;51.794;12.258;2022-12-13T16:08:31;-2.00;17.20
1680;DHT22;838;51.794;12.258;2022-12-13T16:10:58;-2.10;16.10
1680;DHT22;838;51.794;12.258;2022-12-13T16:13:32;-2.20;16.00
1680;DHT22;838;51.794;12.258;2022-12-13T16:16:19;-2.50;17.20
1680;DHT22;838;51.794;12.258;2022-12-13T16:18:51;-3.00;20.70
1680;DHT22;838;51.794;12.258;2022-12-13T16:21:17;-3.60;23.50
1680;DHT22;838;51.794;12.258;2022-12-13T16:23:43;-3.80;25.20
1680;DHT22;838;51.794;12.258;2022-12-13T16:26:13;-3.90;26.60
1680;DHT22;838;51.794;12.258;2022-12-13T16:28:39;-3.90;27.50
1680;DHT22;838;51.794;12.258;2022-12-13T16:31:20;-4.00;28.30
1680;DHT22;838;51.794;12.258;2022-12-13T16:33:47;-4.00;28.90
1680;DHT22;838;51.794;12.258;2022-12-13T16:36:13;-4.10;28.50
1680;DHT22;838;51.794;12.258;2022-12-13T16:38:39;-4.10;28.60
1680;DHT22;838;51.794;12.258;2022-12-13T16:41:05;-4.10;29.00
1680;DHT22;838;51.794;12.258;2022-12-13T16:43:33;-4.00;27.80
1680;DHT22;838;51.794;12.258;2022-12-13T16:46:00;-4.10;26.60
1680;DHT22;838;51.794;12.258;2022-12-13T16:48:28;-4.20;26.90
1680;DHT22;838;51.794;12.258;2022-12-13T16:50:53;-4.30;27.40
1680;DHT22;838;51.794;12.258;2022-12-13T16:53:19;-4.60;29.10
1680;DHT22;838;51.794;12.258;2022-12-13T16:55:45;-4.60;30.50
1680;DHT22;838;51.794;12.258;2022-12-13T16:58:15;-4.40;30.20
1680;DHT22;838;51.794;12.258;2022-12-13T17:00:43;-4.30;28.80
1680;DHT22;838;51.794;12.258;2022-12-13T17:03:11;-4.30;28.60
1680;DHT22;838;51.794;12.258;2022-12-13T17:05:40;-4.30;30.00
1680;DHT22;838;51.794;12.258;2022-12-13T17:08:10;-4.10;27.90
1680;DHT22;838;51.794;12.258;2022-12-13T17:10:36;-4.10;27.00
1680;DHT22;838;51.794;12.258;2022-12-13T17:13:02;-4.20;27.00
1680;DHT22;838;51.794;12.258;2022-12-13T17:15:27;-4.30;26.30
1680;DHT22;838;51.794;12.258;2022-12-13T17:17:53;-4.40;26.30
1680;DHT22;838;51.794;12.258;2022-12-13T17:20:20;-4.40;27.60
1680;DHT22;838;51.794;12.258;2022-12-13T17:22:45;-4.40;26.30
1680;DHT22;838;51.794;12.258;2022-12-13T17:25:12;-4.40;26.90
1680;DHT22;838;51.794;12.258;2022-12-13T17:27:38;-4.50;28.00
1680;DHT22;838;51.794;12.258;2022-12-13T17:30:06;-4.60;29.50
1680;DHT22;838;51.794;12.258;2022-12-13T17:32:33;-4.40;30.00
1680;DHT22;838;51.794;12.258;2022-12-13T17:34:59;-4.30;27.90
1680;DHT22;838;51.794;12.258;2022-12-13T17:37:24;-4.30;27.30
1680;DHT22;838;51.794;12.258;2022-12-13T17:39:51;-4.50;27.30
1680;DHT22;838;51.794;12.258;2022-12-13T17:42:17;-4.50;27.00
1680;DHT22;838;51.794;12.258;2022-12-13T17:44:43;-4.50;24.90
1680;DHT22;838;51.794;12.258;2022-12-13T17:47:08;-4.60;24.70
1680;DHT22;838;51.794;12.258;2022-12-13T17:49:34;-5.00;25.00
1680;DHT22;838;51.794;12.258;2022-12-13T17:52:00;-5.20;27.40
1680;DHT22;838;51.794;12.258;2022-12-13T17:54:26;-5.50;29.80
1680;DHT22;838;51.794;12.258;2022-12-13T17:56:53;-5.60;31.90
1680;DHT22;838;51.794;12.258;2022-12-13T17:59:19;-5.50;30.50
1680;DHT22;838;51.794;12.258;2022-12-13T18:01:45;-5.60;30.40
1680;DHT22;838;51.794;12.258;2022-12-13T18:04:13;-5.50;31.40
1680;DHT22;838;51.794;12.258;2022-12-13T18:06:39;-5.40;33.00
1680;DHT22;838;51.794;12.258;2022-12-13T18:09:06;-5.20;31.20
1680;DHT22;838;51.794;12.258;2022-12-13T18:11:32;-5.30;32.20
1680;DHT22;838;51.794;12.258;2022-12-13T18:13:59;-5.30;34.20
1680;DHT22;838;51.794;12.258;2022-12-13T18:16:25;-5.00;31.80
1680;DHT22;838;51.794;12.258;2022-12-13T18:18:56;-4.70;28.90
1680;DHT22;838;51.794;12.258;2022-12-13T18:21:23;-4.80;25.60
1680;DHT22;838;51.794;12.258;2022-12-13T18:23:50;-5.00;27.00
1680;DHT22;838;51.794;12.258;2022-12-13T18:26:16;-5.10;28.30
1680;DHT22;838;51.794;12.258;2022-12-13T18:28:43;-5.20;30.00